createdAt,value
2024-03-16T00:00:18.206Z,4.11
2024-03-16T00:02:45.347Z,4.10
2024-03-16T00:05:12.462Z,4.09
2024-03-16T00:07:39.442Z,4.08
2024-03-16T00:10:07.320Z,4.06
2024-03-16T00:12:35.480Z,4.05
2024-03-16T00:15:02.349Z,4.04
2024-03-16T00:17:29.334Z,4.04
2024-03-16T00:19:56.138Z,4.03
2024-03-16T00:22:22.932Z,4.03
2024-03-16T00:24:51.252Z,4.02
2024-03-16T00:27:18.711Z,4.02
2024-03-16T00:29:45.464Z,4.01
2024-03-16T00:32:12.303Z,4.00
2024-03-16T00:34:39.028Z,4.01
2024-03-16T00:37:06.162Z,4.01
2024-03-16T00:39:33.254Z,4.00
2024-03-16T00:42:00.095Z,3.99
2024-03-16T00:44:27.880Z,3.97
2024-03-16T00:46:54.638Z,3.97
2024-03-16T00:49:21.506Z,3.96
2024-03-16T00:51:48.325Z,3.97
2024-03-16T00:54:15.172Z,3.98
2024-03-16T00:56:43.876Z,3.98
2024-03-16T00:59:10.572Z,3.97
2024-03-16T01:01:37.525Z,3.97
2024-03-16T01:04:05.221Z,3.97
2024-03-16T01:06:32.344Z,3.96
2024-03-16T01:08:59.880Z,3.96
2024-03-16T01:11:26.778Z,3.94
2024-03-16T01:13:54.065Z,3.93
2024-03-16T01:16:20.882Z,3.91
2024-03-16T01:18:47.587Z,3.90
2024-03-16T01:21:15.498Z,3.89
2024-03-16T01:23:42.249Z,3.88
2024-03-16T01:26:10.169Z,3.87
2024-03-16T01:28:36.877Z,3.85
2024-03-16T01:31:04.372Z,3.84
2024-03-16T01:33:31.298Z,3.85
2024-03-16T01:35:58.405Z,3.86
2024-03-16T01:38:25.253Z,3.85
2024-03-16T01:40:52.028Z,3.84
2024-03-16T01:43:19.044Z,3.84
2024-03-16T01:45:46.171Z,3.82
2024-03-16T01:48:13.245Z,3.81
2024-03-16T01:50:41.452Z,3.81
2024-03-16T01:53:10.141Z,3.80
2024-03-16T01:55:36.970Z,3.80
2024-03-16T01:58:05.041Z,3.80
2024-03-16T02:00:32.483Z,3.78
2024-03-16T02:03:00.414Z,3.77
2024-03-16T02:05:27.326Z,3.76
2024-03-16T02:07:54.581Z,3.77
2024-03-16T02:10:22.191Z,3.78
2024-03-16T02:12:49.582Z,3.78
2024-03-16T02:15:16.707Z,3.78
2024-03-16T02:17:46.491Z,3.79
2024-03-16T02:20:16.500Z,3.80
2024-03-16T02:22:43.543Z,3.80
2024-03-16T02:25:11.479Z,3.80
2024-03-16T02:27:38.645Z,3.81
2024-03-16T02:30:10.583Z,3.81
2024-03-16T02:32:37.992Z,3.81
2024-03-16T02:35:08.505Z,3.81
2024-03-16T02:37:36.086Z,3.81
2024-03-16T02:40:06.536Z,3.81
2024-03-16T02:42:33.494Z,3.81
2024-03-16T02:45:00.528Z,3.82
2024-03-16T02:47:27.507Z,3.83
2024-03-16T02:49:54.575Z,3.83
2024-03-16T02:52:21.260Z,3.83
2024-03-16T02:54:48.449Z,3.83
2024-03-16T02:57:15.450Z,3.83
2024-03-16T02:59:42.273Z,3.82
2024-03-16T03:02:09.339Z,3.81
2024-03-16T03:04:36.073Z,3.79
2024-03-16T03:07:04.749Z,3.79
2024-03-16T03:09:33.592Z,3.79
2024-03-16T03:12:00.510Z,3.78
2024-03-16T03:14:27.402Z,3.78
2024-03-16T03:16:54.342Z,3.78
2024-03-16T03:19:21.163Z,3.79
2024-03-16T03:21:47.876Z,3.80
2024-03-16T03:24:14.738Z,3.80
2024-03-16T03:26:41.527Z,3.80
2024-03-16T03:29:08.471Z,3.78
2024-03-16T03:31:35.146Z,3.78
2024-03-16T03:34:01.835Z,3.78
2024-03-16T03:36:29.780Z,3.80
2024-03-16T03:38:56.644Z,3.81
2024-03-16T03:41:23.462Z,3.82
2024-03-16T03:44:00.202Z,3.81
2024-03-16T03:46:40.234Z,3.79
2024-03-16T03:49:15.235Z,3.76
2024-03-16T03:51:42.051Z,3.75
2024-03-16T03:54:09.170Z,3.73
2024-03-16T03:56:35.946Z,3.72
2024-03-16T03:59:02.871Z,3.71
2024-03-16T04:01:29.820Z,3.69
2024-03-16T04:03:56.745Z,3.68
2024-03-16T04:06:26.509Z,3.67
2024-03-16T04:08:53.362Z,3.67
2024-03-16T04:11:20.146Z,3.68
2024-03-16T04:13:47.140Z,3.68
2024-03-16T04:16:15.002Z,3.67
2024-03-16T04:18:42.151Z,3.66
2024-03-16T04:21:08.854Z,3.63
2024-03-16T04:23:35.601Z,3.63
2024-03-16T04:26:02.349Z,3.63
2024-03-16T04:28:29.231Z,3.63
2024-03-16T04:30:56.312Z,3.62
2024-03-16T04:33:23.244Z,3.62
2024-03-16T04:35:49.882Z,3.62
2024-03-16T04:38:18.064Z,3.62
2024-03-16T04:40:44.818Z,3.63
2024-03-16T04:43:11.858Z,3.65
2024-03-16T04:45:38.843Z,3.66
2024-03-16T04:48:05.814Z,3.68
2024-03-16T04:50:34.068Z,3.69
2024-03-16T04:53:00.856Z,3.68
2024-03-16T04:55:27.750Z,3.67
2024-03-16T04:57:54.579Z,3.68
2024-03-16T05:00:21.898Z,3.70
2024-03-16T05:02:48.857Z,3.69
2024-03-16T05:05:15.787Z,3.70
2024-03-16T05:07:42.543Z,3.70
2024-03-16T05:10:09.596Z,3.70
2024-03-16T05:12:36.760Z,3.71
2024-03-16T05:15:04.244Z,3.73
2024-03-16T05:17:32.146Z,3.73
2024-03-16T05:19:58.919Z,3.72
2024-03-16T05:22:26.123Z,3.73
2024-03-16T05:24:53.072Z,3.77
2024-03-16T05:27:19.877Z,3.81
2024-03-16T05:29:46.573Z,3.84
2024-03-16T05:32:13.515Z,3.87
2024-03-16T05:34:40.493Z,3.87
2024-03-16T05:37:07.361Z,3.90
2024-03-16T05:39:34.462Z,3.90
2024-03-16T05:42:01.288Z,3.91
2024-03-16T05:44:28.000Z,3.92
2024-03-16T05:46:54.780Z,3.95
2024-03-16T05:49:22.732Z,3.99
2024-03-16T05:51:50.558Z,4.04
2024-03-16T05:54:17.406Z,4.07
2024-03-16T05:56:44.097Z,4.10
2024-03-16T05:59:11.450Z,4.15
2024-03-16T06:01:38.301Z,4.18
2024-03-16T06:04:05.268Z,4.20
2024-03-16T06:06:32.643Z,4.22
2024-03-16T06:08:59.517Z,4.25
2024-03-16T06:11:27.254Z,4.30
2024-03-16T06:13:53.988Z,4.34
2024-03-16T06:16:22.265Z,4.39
2024-03-16T06:18:49.350Z,4.42
2024-03-16T06:21:16.189Z,4.46
2024-03-16T06:23:43.191Z,4.49
2024-03-16T06:26:17.292Z,4.51
2024-03-16T06:28:47.696Z,4.53
2024-03-16T06:31:14.554Z,4.57
2024-03-16T06:33:45.999Z,4.62
2024-03-16T06:36:12.733Z,4.67
2024-03-16T06:38:39.734Z,4.75
2024-03-16T06:41:06.564Z,4.81
2024-03-16T06:43:34.361Z,4.88
2024-03-16T06:46:06.633Z,4.93
2024-03-16T06:48:33.518Z,4.98
2024-03-16T06:51:00.497Z,5.02
2024-03-16T06:53:27.127Z,5.04
2024-03-16T06:55:55.929Z,5.06
2024-03-16T06:58:23.333Z,5.12
2024-03-16T07:00:52.163Z,5.16
2024-03-16T07:03:19.814Z,5.19
2024-03-16T07:05:46.430Z,5.24
2024-03-16T07:08:16.415Z,5.30
2024-03-16T07:10:46.653Z,5.36
2024-03-16T07:13:13.677Z,5.42
2024-03-16T07:15:40.814Z,5.49
2024-03-16T07:18:08.181Z,5.56
2024-03-16T07:20:35.464Z,5.63
2024-03-16T07:23:03.355Z,5.70
2024-03-16T07:25:30.906Z,5.81
2024-03-16T07:27:57.667Z,5.95
2024-03-16T07:30:25.909Z,6.14
2024-03-16T07:32:52.683Z,6.37
2024-03-16T07:35:19.448Z,6.68
2024-03-16T07:37:46.046Z,7.00
2024-03-16T07:40:16.003Z,7.37
2024-03-16T07:42:43.080Z,7.79
2024-03-16T07:45:10.268Z,8.22
2024-03-16T07:47:37.613Z,8.64
2024-03-16T07:50:06.380Z,9.12
2024-03-16T07:52:34.312Z,9.63
2024-03-16T07:55:01.140Z,10.14
2024-03-16T07:57:29.124Z,10.67
2024-03-16T07:59:56.030Z,10.96
2024-03-16T08:02:23.028Z,11.08
2024-03-16T08:04:49.953Z,11.19
2024-03-16T08:07:16.862Z,11.49
2024-03-16T08:09:44.186Z,12.10
2024-03-16T08:12:10.927Z,12.47
2024-03-16T08:14:38.097Z,12.67
2024-03-16T08:17:05.167Z,12.89
2024-03-16T08:19:32.393Z,13.17
2024-03-16T08:21:59.318Z,13.54
2024-03-16T08:24:27.137Z,13.84
2024-03-16T08:26:54.044Z,13.95
2024-03-16T08:29:20.898Z,14.08
2024-03-16T08:31:47.792Z,14.41
2024-03-16T08:34:14.709Z,14.76
2024-03-16T08:36:41.541Z,14.92
2024-03-16T08:39:08.817Z,14.93
2024-03-16T08:41:36.919Z,14.81
2024-03-16T08:44:05.117Z,14.65
2024-03-16T08:46:32.196Z,14.70
2024-03-16T08:48:59.172Z,14.97
2024-03-16T08:51:26.307Z,15.12
2024-03-16T08:53:53.946Z,15.07
2024-03-16T08:56:20.762Z,14.82
2024-03-16T08:58:48.981Z,14.28
2024-03-16T09:01:17.391Z,13.71
2024-03-16T09:03:44.404Z,13.24
2024-03-16T09:06:12.564Z,12.85
2024-03-16T09:08:39.490Z,12.52
2024-03-16T09:11:06.266Z,12.18
2024-03-16T09:13:34.390Z,11.93
2024-03-16T09:16:05.885Z,11.76
2024-03-16T09:18:35.819Z,11.61
2024-03-16T09:21:03.692Z,11.44
2024-03-16T09:23:30.803Z,11.29
2024-03-16T09:25:58.024Z,11.10
2024-03-16T09:28:24.924Z,10.89
2024-03-16T09:30:56.366Z,10.76
2024-03-16T09:33:24.041Z,10.64
2024-03-16T09:35:54.190Z,10.54
2024-03-16T09:38:20.921Z,10.40
2024-03-16T09:40:56.250Z,10.22
2024-03-16T09:43:23.094Z,10.02
2024-03-16T09:45:50.011Z,9.88
2024-03-16T09:48:17.600Z,9.81
2024-03-16T09:50:48.287Z,9.76
2024-03-16T09:53:23.713Z,9.66
2024-03-16T09:55:51.486Z,9.55
2024-03-16T09:58:19.003Z,9.43
2024-03-16T10:00:46.498Z,9.35
2024-03-16T10:03:16.249Z,9.29
2024-03-16T10:05:43.653Z,9.26
2024-03-16T10:08:10.570Z,9.23
2024-03-16T10:10:37.362Z,9.20
2024-03-16T10:13:09.326Z,9.19
2024-03-16T10:15:45.779Z,9.21
2024-03-16T10:18:15.977Z,9.20
2024-03-16T10:20:46.117Z,9.19
2024-03-16T10:23:16.817Z,9.22
2024-03-16T10:25:47.066Z,9.27
2024-03-16T10:28:17.048Z,9.34
2024-03-16T10:30:45.497Z,9.39
2024-03-16T10:33:13.077Z,9.40
2024-03-16T10:35:39.854Z,9.43
2024-03-16T10:38:35.347Z,9.41
2024-03-16T10:41:06.588Z,9.38
2024-03-16T10:43:53.548Z,9.36
2024-03-16T10:46:21.322Z,9.33
2024-03-16T10:48:48.255Z,9.32
2024-03-16T10:51:16.529Z,9.30
2024-03-16T10:53:43.450Z,9.27
2024-03-16T10:56:10.773Z,9.24
2024-03-16T10:58:37.993Z,9.24
2024-03-16T11:01:08.925Z,9.21
2024-03-16T11:03:39.924Z,9.16
2024-03-16T11:06:10.735Z,9.11
2024-03-16T11:08:51.154Z,9.10
2024-03-16T11:11:28.067Z,9.06
2024-03-16T11:13:59.673Z,9.02
2024-03-16T11:16:30.169Z,8.98
2024-03-16T11:19:00.922Z,8.97
2024-03-16T11:21:29.242Z,8.96
2024-03-16T11:23:59.652Z,8.91
2024-03-16T11:26:26.438Z,8.88
2024-03-16T11:29:19.269Z,8.88
2024-03-16T11:31:54.034Z,8.91
2024-03-16T11:34:22.002Z,9.00
2024-03-16T11:36:53.391Z,9.09
2024-03-16T11:39:31.306Z,9.12
2024-03-16T11:41:59.323Z,9.13
2024-03-16T11:44:26.872Z,9.12
2024-03-16T11:46:54.418Z,9.13
2024-03-16T11:49:22.088Z,9.15
2024-03-16T11:51:49.945Z,9.13
2024-03-16T11:54:16.995Z,9.06
2024-03-16T11:56:44.256Z,9.01
2024-03-16T11:59:14.334Z,8.93
2024-03-16T12:01:43.096Z,8.87
2024-03-16T12:04:10.728Z,8.83
2024-03-16T12:06:37.801Z,8.77
2024-03-16T12:09:13.767Z,8.68
2024-03-16T12:11:45.863Z,8.61
2024-03-16T12:14:14.918Z,8.59
2024-03-16T12:16:43.862Z,8.57
2024-03-16T12:19:12.034Z,8.52
2024-03-16T12:21:43.486Z,8.49
2024-03-16T12:24:15.330Z,8.49
2024-03-16T12:26:49.643Z,8.45
2024-03-16T12:29:17.858Z,8.43
2024-03-16T12:31:56.966Z,8.40
2024-03-16T12:34:29.005Z,8.36
2024-03-16T12:36:56.315Z,8.34
2024-03-16T12:39:25.684Z,8.31
2024-03-16T12:41:54.213Z,8.29
2024-03-16T12:44:23.019Z,8.28
2024-03-16T12:46:51.098Z,8.26
2024-03-16T12:49:17.885Z,8.20
2024-03-16T12:51:45.678Z,8.12
2024-03-16T12:54:12.720Z,8.06
2024-03-16T12:56:47.939Z,7.99
2024-03-16T12:59:15.037Z,7.97
2024-03-16T13:01:42.311Z,7.94
2024-03-16T13:04:09.185Z,7.94
2024-03-16T13:06:36.131Z,7.92
2024-03-16T13:09:11.235Z,7.88
2024-03-16T13:11:38.301Z,7.86
2024-03-16T13:14:05.090Z,7.84
2024-03-16T13:16:33.535Z,7.80
2024-03-16T13:19:02.182Z,7.76
2024-03-16T13:21:30.107Z,7.72
2024-03-16T13:23:56.862Z,7.69
2024-03-16T13:26:25.022Z,7.68
2024-03-16T13:28:51.835Z,7.68
2024-03-16T13:31:18.879Z,7.67
2024-03-16T13:33:45.641Z,7.68
2024-03-16T13:36:12.748Z,7.70
2024-03-16T13:38:41.286Z,7.71
2024-03-16T13:41:08.636Z,7.74
2024-03-16T13:43:37.058Z,7.74
2024-03-16T13:46:04.411Z,7.72
2024-03-16T13:48:31.774Z,7.70
2024-03-16T13:51:04.665Z,7.71
2024-03-16T13:53:36.804Z,7.70
2024-03-16T13:56:04.114Z,7.67
2024-03-16T13:58:31.051Z,7.65
2024-03-16T14:00:58.056Z,7.63
2024-03-16T14:03:26.019Z,7.61
2024-03-16T14:05:53.073Z,7.62
2024-03-16T14:08:20.755Z,7.60
2024-03-16T14:10:47.510Z,7.58
2024-03-16T14:13:15.222Z,7.57
2024-03-16T14:15:43.247Z,7.54
2024-03-16T14:18:09.976Z,7.48
2024-03-16T14:20:36.916Z,7.41
2024-03-16T14:23:04.450Z,7.36
2024-03-16T14:25:31.957Z,7.33
2024-03-16T14:27:58.694Z,7.30
2024-03-16T14:30:25.611Z,7.27
2024-03-16T14:32:52.530Z,7.25
2024-03-16T14:35:20.222Z,7.22
2024-03-16T14:37:47.478Z,7.18
2024-03-16T14:40:22.223Z,7.14
2024-03-16T14:42:49.704Z,7.10
2024-03-16T14:45:16.809Z,7.05
2024-03-16T14:47:43.791Z,7.01
2024-03-16T14:50:13.949Z,6.95
2024-03-16T14:52:43.717Z,6.90
2024-03-16T14:55:10.749Z,6.87
2024-03-16T14:57:39.239Z,6.86
2024-03-16T15:00:07.392Z,6.85
2024-03-16T15:02:37.572Z,6.84
2024-03-16T15:05:06.578Z,6.84
2024-03-16T15:07:34.251Z,6.83
2024-03-16T15:10:01.838Z,6.82
2024-03-16T15:12:28.858Z,6.82
2024-03-16T15:14:55.750Z,6.81
2024-03-16T15:17:22.560Z,6.80
2024-03-16T15:19:50.572Z,6.81
2024-03-16T15:22:17.470Z,6.81
2024-03-16T15:24:44.755Z,6.81
2024-03-16T15:27:37.955Z,6.82
2024-03-16T15:30:05.819Z,6.80
2024-03-16T15:32:33.065Z,6.78
2024-03-16T15:35:00.218Z,6.75
2024-03-16T15:37:27.368Z,6.72
2024-03-16T15:39:54.326Z,6.68
2024-03-16T15:42:21.482Z,6.65
2024-03-16T15:44:48.650Z,6.64
2024-03-16T15:47:15.462Z,6.61
2024-03-16T15:49:43.012Z,6.59
2024-03-16T15:52:16.876Z,6.58
2024-03-16T15:54:47.764Z,6.58
2024-03-16T15:57:17.160Z,6.56
2024-03-16T15:59:43.951Z,6.55
2024-03-16T16:02:11.064Z,6.54
2024-03-16T16:04:38.204Z,6.52
2024-03-16T16:07:05.033Z,6.50
2024-03-16T16:09:31.814Z,6.47
2024-03-16T16:11:58.638Z,6.44
2024-03-16T16:14:25.581Z,6.43
2024-03-16T16:16:52.418Z,6.39
2024-03-16T16:19:19.381Z,6.38
2024-03-16T16:21:46.124Z,6.37
2024-03-16T16:24:13.334Z,6.36
2024-03-16T16:26:42.160Z,6.34
2024-03-16T16:29:12.166Z,6.33
2024-03-16T16:31:39.307Z,6.32
2024-03-16T16:35:02.706Z,6.32
2024-03-16T16:37:30.109Z,6.32
2024-03-16T16:39:57.196Z,6.31
2024-03-16T16:42:29.740Z,6.30
2024-03-16T16:44:56.636Z,6.29
2024-03-16T16:47:23.520Z,6.27
2024-03-16T16:49:52.589Z,6.26
2024-03-16T16:52:21.273Z,6.24
2024-03-16T16:54:48.203Z,6.21
2024-03-16T16:57:15.113Z,6.19
2024-03-16T16:59:41.973Z,6.19
2024-03-16T17:02:08.890Z,6.18
2024-03-16T17:04:35.609Z,6.17
2024-03-16T17:07:03.270Z,6.17
2024-03-16T17:09:30.153Z,6.17
2024-03-16T17:11:56.952Z,6.16
2024-03-16T17:14:25.414Z,6.15
2024-03-16T17:16:52.796Z,6.14
2024-03-16T17:19:21.151Z,6.12
2024-03-16T17:21:49.268Z,6.11
2024-03-16T17:24:16.089Z,6.10
2024-03-16T17:26:42.942Z,6.09
2024-03-16T17:29:10.251Z,6.08
2024-03-16T17:31:37.040Z,6.06
2024-03-16T17:34:04.888Z,6.05
2024-03-16T17:36:31.865Z,6.04
2024-03-16T17:38:58.713Z,6.02
2024-03-16T17:41:26.269Z,6.00
2024-03-16T17:44:44.003Z,5.98
2024-03-16T17:47:12.137Z,5.98
2024-03-16T17:49:42.360Z,5.97
2024-03-16T17:52:09.081Z,5.96
2024-03-16T17:54:36.069Z,5.94
2024-03-16T17:57:06.381Z,5.94
2024-03-16T17:59:33.162Z,5.92
2024-03-16T18:01:59.948Z,5.91
2024-03-16T18:04:28.435Z,5.91
2024-03-16T18:06:55.513Z,5.91
2024-03-16T18:09:22.335Z,5.91
2024-03-16T18:11:49.166Z,5.91
2024-03-16T18:14:16.031Z,5.89
2024-03-16T18:16:45.238Z,5.87
2024-03-16T18:19:12.411Z,5.86
2024-03-16T18:21:39.317Z,5.85
2024-03-16T18:24:07.154Z,5.85
2024-03-16T18:26:34.022Z,5.84
2024-03-16T18:29:00.894Z,5.83
2024-03-16T18:31:27.833Z,5.81
2024-03-16T18:33:54.989Z,5.79
2024-03-16T18:36:23.135Z,5.77
2024-03-16T18:38:49.989Z,5.75
2024-03-16T18:41:18.594Z,5.73
2024-03-16T18:43:47.983Z,5.72
2024-03-16T18:46:16.201Z,5.69
2024-03-16T18:48:44.692Z,5.65
2024-03-16T18:51:11.482Z,5.62
2024-03-16T18:53:38.300Z,5.59
2024-03-16T18:56:06.305Z,5.56
2024-03-16T18:58:33.202Z,5.53
2024-03-16T19:01:04.628Z,5.51
2024-03-16T19:03:32.029Z,5.50
2024-03-16T19:06:00.475Z,5.47
2024-03-16T19:08:29.288Z,5.44
2024-03-16T19:10:59.194Z,5.43
2024-03-16T19:13:26.936Z,5.42
2024-03-16T19:15:55.721Z,5.41
2024-03-16T19:18:23.319Z,5.40
2024-03-16T19:20:50.674Z,5.39
2024-03-16T19:23:17.682Z,5.38
2024-03-16T19:25:46.368Z,5.38
2024-03-16T19:28:57.071Z,5.38
2024-03-16T19:31:23.947Z,5.38
2024-03-16T19:33:50.968Z,5.37
2024-03-16T19:36:21.464Z,5.37
2024-03-16T19:38:50.423Z,5.36
2024-03-16T19:41:17.652Z,5.35
2024-03-16T19:43:44.969Z,5.34
2024-03-16T19:46:11.915Z,5.33
2024-03-16T19:48:38.677Z,5.31
2024-03-16T19:51:06.533Z,5.31
2024-03-16T19:53:33.276Z,5.30
2024-03-16T19:56:00.189Z,5.28
2024-03-16T19:58:28.720Z,5.27
2024-03-16T20:00:58.008Z,5.27
2024-03-16T20:03:27.999Z,5.27
2024-03-16T20:05:54.842Z,5.26
2024-03-16T20:08:21.891Z,5.25
2024-03-16T20:10:49.795Z,5.25
2024-03-16T20:13:17.137Z,5.24
2024-03-16T20:15:44.054Z,5.23
2024-03-16T20:18:10.813Z,5.21
2024-03-16T20:20:40.306Z,5.20
2024-03-16T20:23:08.346Z,5.18
2024-03-16T20:25:37.989Z,5.17
2024-03-16T20:28:08.408Z,5.16
2024-03-16T20:30:35.582Z,5.16
2024-03-16T20:33:02.487Z,5.15
2024-03-16T20:35:29.334Z,5.14
2024-03-16T20:37:56.181Z,5.13
2024-03-16T20:40:23.764Z,5.12
2024-03-16T20:42:52.776Z,5.11
2024-03-16T20:45:19.868Z,5.09
2024-03-16T20:47:47.026Z,5.09
2024-03-16T20:50:13.955Z,5.07
2024-03-16T20:52:42.631Z,5.06
2024-03-16T20:55:09.654Z,5.03
2024-03-16T20:57:36.734Z,5.02
2024-03-16T21:00:09.690Z,4.99
2024-03-16T21:02:37.185Z,4.97
2024-03-16T21:05:04.716Z,4.96
2024-03-16T21:07:34.330Z,4.95
2024-03-16T21:10:05.202Z,4.94
2024-03-16T21:12:35.194Z,4.93
2024-03-16T21:15:10.143Z,4.90
2024-03-16T21:17:37.131Z,4.90
2024-03-16T21:20:05.544Z,4.90
2024-03-16T21:22:36.893Z,4.89
2024-03-16T21:25:04.659Z,4.89
2024-03-16T21:27:31.603Z,4.87
2024-03-16T21:29:58.435Z,4.85
2024-03-16T21:32:25.319Z,4.83
2024-03-16T21:34:54.263Z,4.82
2024-03-16T21:37:23.779Z,4.82
2024-03-16T21:39:50.657Z,4.80
2024-03-16T21:42:19.927Z,4.80
2024-03-16T21:44:47.126Z,4.80
2024-03-16T21:47:14.644Z,4.80
2024-03-16T21:49:41.505Z,4.79
2024-03-16T21:52:09.171Z,4.78
2024-03-16T21:54:38.395Z,4.78
2024-03-16T21:57:05.159Z,4.77
2024-03-16T21:59:32.020Z,4.77
2024-03-16T22:01:58.900Z,4.78
2024-03-16T22:04:28.278Z,4.79
2024-03-16T22:06:59.090Z,4.80
2024-03-16T22:09:25.890Z,4.79
2024-03-16T22:11:53.734Z,4.79
2024-03-16T22:14:20.525Z,4.79
2024-03-16T22:16:47.231Z,4.80
2024-03-16T22:19:14.659Z,4.81
2024-03-16T22:21:41.499Z,4.82
2024-03-16T22:24:08.766Z,4.83
2024-03-16T22:26:35.696Z,4.83
2024-03-16T22:29:02.542Z,4.84
2024-03-16T22:31:30.753Z,4.84
2024-03-16T22:33:57.604Z,4.85
2024-03-16T22:36:24.722Z,4.84
2024-03-16T22:38:51.446Z,4.84
2024-03-16T22:41:18.171Z,4.84
2024-03-16T22:43:44.798Z,4.84
2024-03-16T22:46:11.504Z,4.84
2024-03-16T22:48:38.403Z,4.84
2024-03-16T22:51:05.183Z,4.85
2024-03-16T22:53:31.825Z,4.84
2024-03-16T22:55:58.651Z,4.84
2024-03-16T22:58:25.544Z,4.84
2024-03-16T23:00:59.568Z,4.84
2024-03-16T23:03:26.639Z,4.84
2024-03-16T23:05:53.405Z,4.84
2024-03-16T23:08:20.813Z,4.84
2024-03-16T23:10:50.443Z,4.83
2024-03-16T23:13:17.344Z,4.83
2024-03-16T23:15:44.094Z,4.83
2024-03-16T23:18:10.851Z,4.83
2024-03-16T23:20:37.928Z,4.83
2024-03-16T23:23:05.915Z,4.81
2024-03-16T23:25:32.650Z,4.81
2024-03-16T23:27:59.525Z,4.79
2024-03-16T23:30:26.937Z,4.78
2024-03-16T23:32:53.559Z,4.77
2024-03-16T23:35:21.673Z,4.78
2024-03-16T23:37:49.541Z,4.77
2024-03-16T23:40:16.218Z,4.78
2024-03-16T23:42:48.074Z,4.77
2024-03-16T23:45:15.412Z,4.77
2024-03-16T23:47:42.781Z,4.76
2024-03-16T23:50:14.038Z,4.75
2024-03-16T23:52:40.779Z,4.75
2024-03-16T23:55:08.124Z,4.73
2024-03-16T23:57:34.985Z,4.73
